sensor_id;sensor_type;location;lat;lon;timestamp;pressure;altitude;pressure_sealevel;temperature;humidity
41515;BME280;27247;48.020;16.720;2023-06-24T00:00:47;100189.44;;;17.83;92.57
41515;BME280;27247;48.020;16.720;2023-06-24T00:04:57;100185.06;;;17.82;92.47
41515;BME280;27247;48.020;16.720;2023-06-24T00:09:11;100188.84;;;17.74;92.36
41515;BME280;27247;48.020;16.720;2023-06-24T00:13:21;100190.72;;;17.74;92.32
41515;BME280;27247;48.020;16.720;2023-06-24T00:17:31;100189.66;;;17.75;91.58
41515;BME280;27247;48.020;16.720;2023-06-24T00:21:42;100188.41;;;17.77;91.21
41515;BME280;27247;48.020;16.720;2023-06-24T00:25:52;100180.50;;;17.82;91.56
41515;BME280;27247;48.020;16.720;2023-06-24T00:30:04;100170.31;;;17.78;91.68
41515;BME280;27247;48.020;16.720;2023-06-24T00:34:14;100164.69;;;17.79;91.55
41515;BME280;27247;48.020;16.720;2023-06-24T00:38:24;100162.41;;;17.76;91.40
41515;BME280;27247;48.020;16.720;2023-06-24T00:42:35;100173.03;;;17.71;91.31
41515;BME280;27247;48.020;16.720;2023-06-24T00:46:45;100176.16;;;17.68;91.54
41515;BME280;27247;48.020;16.720;2023-06-24T00:50:55;100184.25;;;17.68;91.72
41515;BME280;27247;48.020;16.720;2023-06-24T00:55:10;100178.00;;;17.61;91.53
41515;BME280;27247;48.020;16.720;2023-06-24T00:59:23;100183.41;;;17.61;91.40
41515;BME280;27247;48.020;16.720;2023-06-24T01:03:34;100188.19;;;17.66;91.48
41515;BME280;27247;48.020;16.720;2023-06-24T01:07:46;100182.38;;;17.62;91.46
41515;BME280;27247;48.020;16.720;2023-06-24T01:12:05;100167.63;;;17.58;91.75
41515;BME280;27247;48.020;16.720;2023-06-24T01:16:27;100170.75;;;17.55;92.06
41515;BME280;27247;48.020;16.720;2023-06-24T01:20:49;100169.13;;;17.47;92.47
41515;BME280;27247;48.020;16.720;2023-06-24T01:29:52;100177.00;;;17.49;92.99
41515;BME280;27247;48.020;16.720;2023-06-24T01:34:18;100176.81;;;17.44;93.28
41515;BME280;27247;48.020;16.720;2023-06-24T01:38:38;100203.84;;;17.44;93.50
41515;BME280;27247;48.020;16.720;2023-06-24T01:42:50;100194.28;;;17.41;93.80
41515;BME280;27247;48.020;16.720;2023-06-24T01:47:03;100195.50;;;17.45;94.17
41515;BME280;27247;48.020;16.720;2023-06-24T01:51:18;100192.63;;;17.40;94.62
41515;BME280;27247;48.020;16.720;2023-06-24T01:55:31;100200.09;;;17.38;94.52
41515;BME280;27247;48.020;16.720;2023-06-24T01:59:45;100195.13;;;17.35;94.87
41515;BME280;27247;48.020;16.720;2023-06-24T02:03:58;100191.41;;;17.30;95.50
41515;BME280;27247;48.020;16.720;2023-06-24T02:08:10;100191.81;;;17.27;95.74
41515;BME280;27247;48.020;16.720;2023-06-24T02:12:21;100184.75;;;17.26;95.65
41515;BME280;27247;48.020;16.720;2023-06-24T02:16:35;100180.81;;;17.21;96.44
41515;BME280;27247;48.020;16.720;2023-06-24T02:20:46;100181.22;;;17.18;96.54
41515;BME280;27247;48.020;16.720;2023-06-24T02:24:58;100189.13;;;17.13;96.73
41515;BME280;27247;48.020;16.720;2023-06-24T02:29:10;100180.19;;;17.13;96.76
41515;BME280;27247;48.020;16.720;2023-06-24T02:33:22;100185.59;;;17.13;96.83
41515;BME280;27247;48.020;16.720;2023-06-24T02:37:33;100186.03;;;17.10;96.97
41515;BME280;27247;48.020;16.720;2023-06-24T02:41:44;100177.50;;;17.13;96.91
41515;BME280;27247;48.020;16.720;2023-06-24T02:45:55;100183.53;;;17.15;96.89
41515;BME280;27247;48.020;16.720;2023-06-24T02:50:08;100185.19;;;17.16;96.73
41515;BME280;27247;48.020;16.720;2023-06-24T02:54:18;100188.28;;;17.19;96.87
41515;BME280;27247;48.020;16.720;2023-06-24T02:58:29;100178.72;;;17.23;96.19
41515;BME280;27247;48.020;16.720;2023-06-24T03:02:43;100190.38;;;17.24;96.35
41515;BME280;27247;48.020;16.720;2023-06-24T03:06:53;100203.84;;;17.31;96.51
41515;BME280;27247;48.020;16.720;2023-06-24T03:11:04;100195.53;;;17.32;96.18
41515;BME280;27247;48.020;16.720;2023-06-24T03:15:14;100204.06;;;17.29;96.17
41515;BME280;27247;48.020;16.720;2023-06-24T03:19:25;100207.59;;;17.30;96.83
41515;BME280;27247;48.020;16.720;2023-06-24T03:23:35;100201.16;;;17.31;96.75
41515;BME280;27247;48.020;16.720;2023-06-24T03:27:45;100194.72;;;17.32;97.25
41515;BME280;27247;48.020;16.720;2023-06-24T03:31:56;100190.97;;;17.26;97.19
41515;BME280;27247;48.020;16.720;2023-06-24T03:36:06;100189.31;;;17.25;97.31
41515;BME280;27247;48.020;16.720;2023-06-24T03:40:17;100209.25;;;17.37;97.73
41515;BME280;27247;48.020;16.720;2023-06-24T03:44:27;100214.25;;;17.34;97.96
41515;BME280;27247;48.020;16.720;2023-06-24T03:48:37;100213.00;;;17.36;97.43
41515;BME280;27247;48.020;16.720;2023-06-24T03:52:48;100223.16;;;17.41;97.69
41515;BME280;27247;48.020;16.720;2023-06-24T03:56:59;100222.31;;;17.47;97.54
41515;BME280;27247;48.020;16.720;2023-06-24T04:01:09;100229.59;;;17.53;97.22
41515;BME280;27247;48.020;16.720;2023-06-24T04:05:20;100221.06;;;17.56;96.85
41515;BME280;27247;48.020;16.720;2023-06-24T04:09:33;100233.94;;;17.54;97.32
41515;BME280;27247;48.020;16.720;2023-06-24T04:13:45;100251.63;;;17.50;97.99
41515;BME280;27247;48.020;16.720;2023-06-24T04:17:56;100248.28;;;17.54;97.80
41515;BME280;27247;48.020;16.720;2023-06-24T04:22:06;100256.81;;;17.58;98.46
41515;BME280;27247;48.020;16.720;2023-06-24T04:26:16;100246.41;;;17.62;97.35
41515;BME280;27247;48.020;16.720;2023-06-24T04:30:27;100244.31;;;17.64;97.54
41515;BME280;27247;48.020;16.720;2023-06-24T04:34:37;100252.84;;;17.61;98.09
41515;BME280;27247;48.020;16.720;2023-06-24T04:38:47;100245.97;;;17.65;98.06
41515;BME280;27247;48.020;16.720;2023-06-24T04:42:58;100248.69;;;17.65;98.09
41515;BME280;27247;48.020;16.720;2023-06-24T04:47:08;100260.13;;;17.60;98.91
41515;BME280;27247;48.020;16.720;2023-06-24T04:51:18;100264.28;;;17.63;98.74
41515;BME280;27247;48.020;16.720;2023-06-24T04:55:29;100271.34;;;17.64;99.23
41515;BME280;27247;48.020;16.720;2023-06-24T04:59:40;100278.66;;;17.56;99.06
41515;BME280;27247;48.020;16.720;2023-06-24T05:03:50;100291.31;;;17.56;98.81
41515;BME280;27247;48.020;16.720;2023-06-24T05:08:01;100297.78;;;17.55;98.68
41515;BME280;27247;48.020;16.720;2023-06-24T05:12:11;100301.09;;;17.50;99.46
41515;BME280;27247;48.020;16.720;2023-06-24T05:16:21;100321.47;;;17.46;100.00
41515;BME280;27247;48.020;16.720;2023-06-24T05:20:34;100321.69;;;17.45;100.00
41515;BME280;27247;48.020;16.720;2023-06-24T05:24:44;100321.88;;;17.43;100.00
41515;BME280;27247;48.020;16.720;2023-06-24T05:28:54;100341.44;;;17.45;100.00
41515;BME280;27247;48.020;16.720;2023-06-24T05:33:05;100348.50;;;17.46;100.00
41515;BME280;27247;48.020;16.720;2023-06-24T05:37:15;100354.31;;;17.43;100.00
41515;BME280;27247;48.020;16.720;2023-06-24T05:41:25;100357.22;;;17.42;100.00
41515;BME280;27247;48.020;16.720;2023-06-24T05:45:36;100357.22;;;17.48;100.00
41515;BME280;27247;48.020;16.720;2023-06-24T05:49:46;100367.81;;;17.56;100.00
41515;BME280;27247;48.020;16.720;2023-06-24T05:53:56;100370.94;;;17.53;100.00
41515;BME280;27247;48.020;16.720;2023-06-24T05:58:07;100377.59;;;17.51;100.00
41515;BME280;27247;48.020;16.720;2023-06-24T06:02:18;100375.53;;;17.53;100.00
41515;BME280;27247;48.020;16.720;2023-06-24T06:06:28;100378.44;;;17.51;100.00
41515;BME280;27247;48.020;16.720;2023-06-24T06:10:38;100380.09;;;17.46;100.00
41515;BME280;27247;48.020;16.720;2023-06-24T06:14:48;100375.72;;;17.45;100.00
41515;BME280;27247;48.020;16.720;2023-06-24T06:18:59;100382.16;;;17.50;100.00
41515;BME280;27247;48.020;16.720;2023-06-24T06:23:09;100385.72;;;17.51;100.00
41515;BME280;27247;48.020;16.720;2023-06-24T06:27:19;100379.06;;;17.53;99.62
41515;BME280;27247;48.020;16.720;2023-06-24T06:31:30;100375.94;;;17.56;98.89
41515;BME280;27247;48.020;16.720;2023-06-24T06:35:40;100383.41;;;17.61;98.61
41515;BME280;27247;48.020;16.720;2023-06-24T06:39:50;100377.59;;;17.58;98.22
41515;BME280;27247;48.020;16.720;2023-06-24T06:44:01;100366.38;;;17.61;98.14
41515;BME280;27247;48.020;16.720;2023-06-24T06:48:11;100363.69;;;17.67;99.13
41515;BME280;27247;48.020;16.720;2023-06-24T06:52:21;100361.66;;;17.69;98.73
41515;BME280;27247;48.020;16.720;2023-06-24T06:56:32;100374.31;;;17.82;99.42
41515;BME280;27247;48.020;16.720;2023-06-24T07:00:42;100367.25;;;17.88;99.06
41515;BME280;27247;48.020;16.720;2023-06-24T07:04:52;100375.56;;;17.93;99.63
41515;BME280;27247;48.020;16.720;2023-06-24T07:09:03;100366.19;;;17.95;98.46
41515;BME280;27247;48.020;16.720;2023-06-24T07:13:13;100363.69;;;17.94;97.65
41515;BME280;27247;48.020;16.720;2023-06-24T07:17:24;100367.63;;;18.04;98.05
41515;BME280;27247;48.020;16.720;2023-06-24T07:21:34;100368.25;;;18.13;97.96
41515;BME280;27247;48.020;16.720;2023-06-24T07:25:45;100370.94;;;18.13;96.65
41515;BME280;27247;48.020;16.720;2023-06-24T07:29:56;100370.53;;;18.16;97.53
41515;BME280;27247;48.020;16.720;2023-06-24T07:34:07;100385.72;;;18.10;97.32
41515;BME280;27247;48.020;16.720;2023-06-24T07:38:17;100404.66;;;18.04;97.79
41515;BME280;27247;48.020;16.720;2023-06-24T07:42:27;100403.44;;;18.00;98.06
41515;BME280;27247;48.020;16.720;2023-06-24T07:46:38;100390.72;;;18.07;98.97
41515;BME280;27247;48.020;16.720;2023-06-24T07:50:48;100402.56;;;18.12;97.54
41515;BME280;27247;48.020;16.720;2023-06-24T07:54:59;100412.75;;;18.17;98.43
41515;BME280;27247;48.020;16.720;2023-06-24T07:59:09;100407.34;;;18.17;98.49
41515;BME280;27247;48.020;16.720;2023-06-24T08:03:20;100404.00;;;18.22;97.20
41515;BME280;27247;48.020;16.720;2023-06-24T08:07:31;100408.16;;;18.24;96.33
41515;BME280;27247;48.020;16.720;2023-06-24T08:11:43;100407.34;;;18.24;95.13
41515;BME280;27247;48.020;16.720;2023-06-24T08:15:53;100415.66;;;18.22;95.92
41515;BME280;27247;48.020;16.720;2023-06-24T08:20:04;100419.81;;;18.31;94.61
41515;BME280;27247;48.020;16.720;2023-06-24T08:24:14;100429.59;;;18.32;94.16
41515;BME280;27247;48.020;16.720;2023-06-24T08:28:25;100425.44;;;18.23;94.54
41515;BME280;27247;48.020;16.720;2023-06-24T08:32:35;100434.38;;;18.24;95.05
41515;BME280;27247;48.020;16.720;2023-06-24T08:36:45;100432.13;;;18.14;94.88
41515;BME280;27247;48.020;16.720;2023-06-24T08:40:56;100448.75;;;18.17;94.60
41515;BME280;27247;48.020;16.720;2023-06-24T08:45:06;100435.88;;;18.13;95.42
41515;BME280;27247;48.020;16.720;2023-06-24T08:49:27;100443.16;;;18.12;94.43
41515;BME280;27247;48.020;16.720;2023-06-24T08:53:38;100453.31;;;18.30;94.95
41515;BME280;27247;48.020;16.720;2023-06-24T08:57:52;100439.75;;;18.50;94.63
41515;BME280;27247;48.020;16.720;2023-06-24T09:02:03;100430.75;;;18.76;93.50
41515;BME280;27247;48.020;16.720;2023-06-24T09:06:13;100426.69;;;18.98;90.39
41515;BME280;27247;48.020;16.720;2023-06-24T09:10:31;100432.84;;;19.19;89.92
41515;BME280;27247;48.020;16.720;2023-06-24T09:14:42;100441.69;;;19.39;90.48
41515;BME280;27247;48.020;16.720;2023-06-24T09:18:57;100443.13;;;19.41;88.91
41515;BME280;27247;48.020;16.720;2023-06-24T09:23:08;100439.16;;;19.44;89.00
41515;BME280;27247;48.020;16.720;2023-06-24T09:27:18;100452.47;;;19.45;88.64
41515;BME280;27247;48.020;16.720;2023-06-24T09:31:34;100450.50;;;19.66;90.36
41515;BME280;27247;48.020;16.720;2023-06-24T09:35:44;100450.31;;;19.92;90.73
41515;BME280;27247;48.020;16.720;2023-06-24T09:39:55;100444.94;;;20.11;89.22
41515;BME280;27247;48.020;16.720;2023-06-24T09:44:11;100453.00;;;20.42;90.57
41515;BME280;27247;48.020;16.720;2023-06-24T09:48:21;100437.47;;;20.67;88.32
41515;BME280;27247;48.020;16.720;2023-06-24T09:52:33;100450.38;;;20.72;87.16
41515;BME280;27247;48.020;16.720;2023-06-24T09:56:48;100458.28;;;20.55;86.09
41515;BME280;27247;48.020;16.720;2023-06-24T10:01:02;100460.19;;;20.30;85.69
41515;BME280;27247;48.020;16.720;2023-06-24T10:05:13;100460.84;;;20.07;85.25
41515;BME280;27247;48.020;16.720;2023-06-24T10:09:24;100468.47;;;19.92;86.55
41515;BME280;27247;48.020;16.720;2023-06-24T10:13:34;100463.78;;;19.74;86.36
41515;BME280;27247;48.020;16.720;2023-06-24T10:17:45;100467.03;;;19.58;87.52
41515;BME280;27247;48.020;16.720;2023-06-24T10:22:00;100464.34;;;19.51;88.36
41515;BME280;27247;48.020;16.720;2023-06-24T10:26:22;100460.63;;;19.45;87.33
41515;BME280;27247;48.020;16.720;2023-06-24T10:30:35;100463.59;;;19.37;85.96
41515;BME280;27247;48.020;16.720;2023-06-24T10:34:47;100473.38;;;19.38;86.66
41515;BME280;27247;48.020;16.720;2023-06-24T10:38:57;100465.88;;;19.40;86.88
41515;BME280;27247;48.020;16.720;2023-06-24T10:47:34;100456.28;;;19.38;87.11
41515;BME280;27247;48.020;16.720;2023-06-24T10:51:44;100449.53;;;19.54;87.82
41515;BME280;27247;48.020;16.720;2023-06-24T10:55:57;100446.56;;;19.62;85.80
41515;BME280;27247;48.020;16.720;2023-06-24T11:00:08;100451.47;;;19.78;86.33
41515;BME280;27247;48.020;16.720;2023-06-24T11:04:19;100452.66;;;19.89;86.64
41515;BME280;27247;48.020;16.720;2023-06-24T11:08:29;100464.00;;;19.79;86.67
41515;BME280;27247;48.020;16.720;2023-06-24T11:12:41;100467.22;;;19.63;87.89
41515;BME280;27247;48.020;16.720;2023-06-24T11:16:51;100458.34;;;19.42;89.14
41515;BME280;27247;48.020;16.720;2023-06-24T11:21:02;100443.59;;;19.32;89.68
41515;BME280;27247;48.020;16.720;2023-06-24T11:25:17;100439.59;;;19.41;89.55
41515;BME280;27247;48.020;16.720;2023-06-24T11:29:32;100433.66;;;19.57;90.28
41515;BME280;27247;48.020;16.720;2023-06-24T11:33:42;100432.13;;;19.68;90.72
41515;BME280;27247;48.020;16.720;2023-06-24T11:37:53;100435.19;;;19.78;89.46
41515;BME280;27247;48.020;16.720;2023-06-24T11:42:08;100420.53;;;19.86;87.47
41515;BME280;27247;48.020;16.720;2023-06-24T11:46:30;100428.44;;;20.12;88.94
41515;BME280;27247;48.020;16.720;2023-06-24T11:50:53;100426.09;;;20.40;85.83
41515;BME280;27247;48.020;16.720;2023-06-24T11:55:04;100424.34;;;20.64;86.59
41515;BME280;27247;48.020;16.720;2023-06-24T11:59:18;100417.19;;;20.88;84.22
41515;BME280;27247;48.020;16.720;2023-06-24T12:03:29;100413.34;;;21.26;84.14
41515;BME280;27247;48.020;16.720;2023-06-24T12:07:42;100422.38;;;21.38;82.99
41515;BME280;27247;48.020;16.720;2023-06-24T12:11:52;100418.31;;;21.71;81.00
41515;BME280;27247;48.020;16.720;2023-06-24T12:16:03;100423.94;;;21.46;80.80
41515;BME280;27247;48.020;16.720;2023-06-24T12:20:14;100419.88;;;21.07;80.72
41515;BME280;27247;48.020;16.720;2023-06-24T12:24:25;100420.28;;;20.92;82.41
41515;BME280;27247;48.020;16.720;2023-06-24T12:28:35;100410.00;;;20.76;82.82
41515;BME280;27247;48.020;16.720;2023-06-24T12:32:46;100419.91;;;20.52;83.27
41515;BME280;27247;48.020;16.720;2023-06-24T12:36:57;100432.72;;;20.45;83.91
41515;BME280;27247;48.020;16.720;2023-06-24T12:41:07;100428.13;;;20.45;85.47
41515;BME280;27247;48.020;16.720;2023-06-24T12:45:17;100423.84;;;20.31;84.64
41515;BME280;27247;48.020;16.720;2023-06-24T12:49:28;100421.75;;;20.33;85.31
41515;BME280;27247;48.020;16.720;2023-06-24T12:53:38;100429.13;;;20.26;86.57
41515;BME280;27247;48.020;16.720;2023-06-24T12:57:49;100429.66;;;20.34;86.09
41515;BME280;27247;48.020;16.720;2023-06-24T13:01:59;100429.34;;;20.49;83.48
41515;BME280;27247;48.020;16.720;2023-06-24T13:06:10;100433.03;;;20.55;83.11
41515;BME280;27247;48.020;16.720;2023-06-24T13:10:21;100427.13;;;20.58;82.45
41515;BME280;27247;48.020;16.720;2023-06-24T13:14:31;100426.91;;;20.59;83.94
41515;BME280;27247;48.020;16.720;2023-06-24T13:18:41;100422.78;;;20.57;83.72
41515;BME280;27247;48.020;16.720;2023-06-24T13:22:52;100433.94;;;20.49;83.91
41515;BME280;27247;48.020;16.720;2023-06-24T13:27:02;100436.53;;;20.37;84.31
41515;BME280;27247;48.020;16.720;2023-06-24T13:31:12;100437.19;;;20.32;84.87
41515;BME280;27247;48.020;16.720;2023-06-24T13:35:23;100429.59;;;20.23;83.61
41515;BME280;27247;48.020;16.720;2023-06-24T13:39:33;100427.88;;;20.03;82.83
41515;BME280;27247;48.020;16.720;2023-06-24T13:43:43;100428.28;;;20.07;85.07
41515;BME280;27247;48.020;16.720;2023-06-24T13:47:54;100422.53;;;19.97;86.07
41515;BME280;27247;48.020;16.720;2023-06-24T13:52:05;100419.66;;;19.92;85.02
41515;BME280;27247;48.020;16.720;2023-06-24T13:56:15;100421.41;;;19.80;85.83
41515;BME280;27247;48.020;16.720;2023-06-24T14:00:26;100422.88;;;19.75;86.53
41515;BME280;27247;48.020;16.720;2023-06-24T14:04:37;100416.69;;;19.68;87.07
41515;BME280;27247;48.020;16.720;2023-06-24T14:08:49;100419.06;;;19.58;86.60
41515;BME280;27247;48.020;16.720;2023-06-24T14:13:00;100408.59;;;19.62;88.42
41515;BME280;27247;48.020;16.720;2023-06-24T14:17:10;100406.16;;;19.54;87.02
41515;BME280;27247;48.020;16.720;2023-06-24T14:21:22;100406.94;;;19.61;87.37
41515;BME280;27247;48.020;16.720;2023-06-24T14:25:32;100408.16;;;19.65;86.99
41515;BME280;27247;48.020;16.720;2023-06-24T14:29:43;100400.03;;;19.65;86.79
41515;BME280;27247;48.020;16.720;2023-06-24T14:33:53;100401.06;;;19.64;85.90
41515;BME280;27247;48.020;16.720;2023-06-24T14:38:04;100402.06;;;19.69;86.34
41515;BME280;27247;48.020;16.720;2023-06-24T14:42:14;100399.81;;;19.66;86.56
41515;BME280;27247;48.020;16.720;2023-06-24T14:46:24;100401.56;;;19.54;86.12
41515;BME280;27247;48.020;16.720;2023-06-24T14:50:35;100399.63;;;19.61;86.28
41515;BME280;27247;48.020;16.720;2023-06-24T14:54:46;100399.84;;;19.60;86.68
41515;BME280;27247;48.020;16.720;2023-06-24T14:58:57;100399.28;;;19.51;85.79
41515;BME280;27247;48.020;16.720;2023-06-24T15:03:07;100396.78;;;19.50;85.62
41515;BME280;27247;48.020;16.720;2023-06-24T15:07:18;100394.34;;;19.41;85.85
41515;BME280;27247;48.020;16.720;2023-06-24T15:11:28;100385.53;;;19.46;86.50
41515;BME280;27247;48.020;16.720;2023-06-24T15:15:38;100386.75;;;19.50;87.22
41515;BME280;27247;48.020;16.720;2023-06-24T15:19:49;100376.34;;;19.54;86.37
41515;BME280;27247;48.020;16.720;2023-06-24T15:23:59;100369.88;;;19.55;85.95
41515;BME280;27247;48.020;16.720;2023-06-24T15:28:09;100368.59;;;19.57;86.50
41515;BME280;27247;48.020;16.720;2023-06-24T15:32:20;100366.50;;;19.59;86.59
41515;BME280;27247;48.020;16.720;2023-06-24T15:36:30;100365.78;;;19.70;86.43
41515;BME280;27247;48.020;16.720;2023-06-24T15:40:40;100347.16;;;19.74;85.72
41515;BME280;27247;48.020;16.720;2023-06-24T15:44:51;100350.69;;;19.81;86.46
41515;BME280;27247;48.020;16.720;2023-06-24T15:49:01;100344.81;;;19.84;85.46
41515;BME280;27247;48.020;16.720;2023-06-24T15:53:11;100345.41;;;19.86;86.27
41515;BME280;27247;48.020;16.720;2023-06-24T15:57:22;100337.94;;;19.82;86.06
41515;BME280;27247;48.020;16.720;2023-06-24T16:01:32;100340.06;;;19.80;85.72
41515;BME280;27247;48.020;16.720;2023-06-24T16:05:43;100329.81;;;19.82;85.96
41515;BME280;27247;48.020;16.720;2023-06-24T16:09:53;100336.72;;;19.77;85.34
41515;BME280;27247;48.020;16.720;2023-06-24T16:14:05;100326.72;;;19.78;86.17
41515;BME280;27247;48.020;16.720;2023-06-24T16:18:15;100334.94;;;19.90;86.08
41515;BME280;27247;48.020;16.720;2023-06-24T16:22:25;100328.16;;;19.99;86.50
41515;BME280;27247;48.020;16.720;2023-06-24T16:26:36;100335.84;;;20.02;84.83
41515;BME280;27247;48.020;16.720;2023-06-24T16:30:46;100326.50;;;19.98;83.49
41515;BME280;27247;48.020;16.720;2023-06-24T16:34:57;100336.69;;;20.02;83.84
41515;BME280;27247;48.020;16.720;2023-06-24T16:39:07;100325.69;;;19.97;84.28
41515;BME280;27247;48.020;16.720;2023-06-24T16:43:18;100333.44;;;19.94;84.22
41515;BME280;27247;48.020;16.720;2023-06-24T16:47:28;100321.25;;;20.03;84.59
41515;BME280;27247;48.020;16.720;2023-06-24T16:51:38;100318.22;;;19.93;85.10
41515;BME280;27247;48.020;16.720;2023-06-24T16:55:50;100321.38;;;19.90;85.07
41515;BME280;27247;48.020;16.720;2023-06-24T17:00:01;100324.53;;;19.87;85.37
41515;BME280;27247;48.020;16.720;2023-06-24T17:04:11;100320.56;;;19.89;85.33
41515;BME280;27247;48.020;16.720;2023-06-24T17:08:21;100330.34;;;19.90;85.96
41515;BME280;27247;48.020;16.720;2023-06-24T17:12:32;100311.97;;;19.92;86.27
41515;BME280;27247;48.020;16.720;2023-06-24T17:16:42;100307.22;;;19.88;86.16
41515;BME280;27247;48.020;16.720;2023-06-24T17:20:52;100301.25;;;19.79;86.64
41515;BME280;27247;48.020;16.720;2023-06-24T17:25:03;100303.75;;;19.81;86.37
41515;BME280;27247;48.020;16.720;2023-06-24T17:29:13;100304.56;;;19.81;86.81
41515;BME280;27247;48.020;16.720;2023-06-24T17:33:25;100309.81;;;19.76;87.16
41515;BME280;27247;48.020;16.720;2023-06-24T17:37:36;100303.59;;;19.94;87.64
41515;BME280;27247;48.020;16.720;2023-06-24T17:41:46;100317.69;;;20.02;86.68
41515;BME280;27247;48.020;16.720;2023-06-24T17:45:57;100315.34;;;20.06;86.51
41515;BME280;27247;48.020;16.720;2023-06-24T17:50:07;100313.63;;;20.12;86.30
41515;BME280;27247;48.020;16.720;2023-06-24T17:54:17;100318.28;;;20.23;84.73
41515;BME280;27247;48.020;16.720;2023-06-24T17:58:28;100317.47;;;20.22;84.51
41515;BME280;27247;48.020;16.720;2023-06-24T18:02:38;100322.75;;;20.17;83.50
41515;BME280;27247;48.020;16.720;2023-06-24T18:06:48;100329.47;;;20.15;83.79
41515;BME280;27247;48.020;16.720;2023-06-24T18:10:59;100324.25;;;20.13;84.19
41515;BME280;27247;48.020;16.720;2023-06-24T18:15:10;100326.66;;;20.03;84.52
41515;BME280;27247;48.020;16.720;2023-06-24T18:19:20;100325.59;;;19.86;84.54
41515;BME280;27247;48.020;16.720;2023-06-24T18:23:31;100321.38;;;19.90;85.17
41515;BME280;27247;48.020;16.720;2023-06-24T18:27:41;100319.72;;;19.89;85.95
41515;BME280;27247;48.020;16.720;2023-06-24T18:31:52;100316.50;;;19.73;87.61
41515;BME280;27247;48.020;16.720;2023-06-24T18:36:02;100326.81;;;19.65;87.66
41515;BME280;27247;48.020;16.720;2023-06-24T18:40:13;100327.41;;;19.67;87.76
41515;BME280;27247;48.020;16.720;2023-06-24T18:44:23;100325.00;;;19.59;88.15
41515;BME280;27247;48.020;16.720;2023-06-24T18:48:33;100322.50;;;19.57;88.38
41515;BME280;27247;48.020;16.720;2023-06-24T18:52:44;100328.84;;;19.44;87.89
41515;BME280;27247;48.020;16.720;2023-06-24T18:56:54;100332.25;;;19.33;88.24
41515;BME280;27247;48.020;16.720;2023-06-24T19:01:05;100330.81;;;19.31;88.42
41515;BME280;27247;48.020;16.720;2023-06-24T19:05:15;100329.72;;;19.13;89.15
41515;BME280;27247;48.020;16.720;2023-06-24T19:09:25;100335.16;;;19.07;88.92
41515;BME280;27247;48.020;16.720;2023-06-24T19:13:36;100332.50;;;19.00;89.43
41515;BME280;27247;48.020;16.720;2023-06-24T19:17:46;100335.66;;;18.97;89.85
41515;BME280;27247;48.020;16.720;2023-06-24T19:21:56;100354.25;;;18.87;90.30
41515;BME280;27247;48.020;16.720;2023-06-24T19:26:07;100356.34;;;18.85;90.50
41515;BME280;27247;48.020;16.720;2023-06-24T19:30:17;100348.22;;;18.85;91.15
41515;BME280;27247;48.020;16.720;2023-06-24T19:34:28;100348.25;;;18.78;90.94
41515;BME280;27247;48.020;16.720;2023-06-24T19:38:38;100341.00;;;18.66;91.64
41515;BME280;27247;48.020;16.720;2023-06-24T19:42:48;100344.31;;;18.68;91.84
41515;BME280;27247;48.020;16.720;2023-06-24T19:46:59;100344.75;;;18.65;91.95
41515;BME280;27247;48.020;16.720;2023-06-24T19:51:09;100351.00;;;18.65;91.83
41515;BME280;27247;48.020;16.720;2023-06-24T19:55:19;100344.38;;;18.61;92.23
41515;BME280;27247;48.020;16.720;2023-06-24T19:59:30;100343.94;;;18.58;92.38
41515;BME280;27247;48.020;16.720;2023-06-24T20:03:40;100344.53;;;18.60;92.86
41515;BME280;27247;48.020;16.720;2023-06-24T20:07:50;100349.78;;;18.55;93.25
41515;BME280;27247;48.020;16.720;2023-06-24T20:12:01;100349.38;;;18.51;92.98
41515;BME280;27247;48.020;16.720;2023-06-24T20:16:11;100354.78;;;18.51;92.70
41515;BME280;27247;48.020;16.720;2023-06-24T20:20:21;100359.41;;;18.44;93.42
41515;BME280;27247;48.020;16.720;2023-06-24T20:24:32;100359.00;;;18.40;93.66
41515;BME280;27247;48.020;16.720;2023-06-24T20:28:42;100372.75;;;18.39;93.96
41515;BME280;27247;48.020;16.720;2023-06-24T20:32:52;100374.38;;;18.46;93.58
41515;BME280;27247;48.020;16.720;2023-06-24T20:37:03;100376.69;;;18.43;93.48
41515;BME280;27247;48.020;16.720;2023-06-24T20:41:23;100364.63;;;18.39;93.87
41515;BME280;27247;48.020;16.720;2023-06-24T20:45:37;100370.25;;;18.37;94.09
41515;BME280;27247;48.020;16.720;2023-06-24T20:49:47;100372.13;;;18.37;94.53
41515;BME280;27247;48.020;16.720;2023-06-24T20:53:57;100367.13;;;18.34;94.54
41515;BME280;27247;48.020;16.720;2023-06-24T20:58:08;100362.16;;;18.31;94.33
41515;BME280;27247;48.020;16.720;2023-06-24T21:02:18;100356.13;;;18.22;94.97
41515;BME280;27247;48.020;16.720;2023-06-24T21:06:29;100363.25;;;18.10;96.42
41515;BME280;27247;48.020;16.720;2023-06-24T21:10:39;100363.88;;;18.12;95.79
41515;BME280;27247;48.020;16.720;2023-06-24T21:14:49;100363.88;;;18.05;95.43
41515;BME280;27247;48.020;16.720;2023-06-24T21:19:00;100351.81;;;18.08;93.61
41515;BME280;27247;48.020;16.720;2023-06-24T21:23:10;100347.22;;;18.08;92.19
41515;BME280;27247;48.020;16.720;2023-06-24T21:27:20;100353.06;;;18.12;91.10
41515;BME280;27247;48.020;16.720;2023-06-24T21:31:31;100355.94;;;18.17;91.39
41515;BME280;27247;48.020;16.720;2023-06-24T21:35:41;100361.56;;;18.22;92.04
41515;BME280;27247;48.020;16.720;2023-06-24T21:39:51;100358.88;;;18.15;92.25
41515;BME280;27247;48.020;16.720;2023-06-24T21:44:02;100368.84;;;18.15;92.84